X  Sluiten METAR luchtvaart weer gegevens         LPMA Madeira Airport
Temperatuur
15°C Temperatuur
13°C Dauwpunt
88% Vochtigheid



Wind
16 MPH
26 KM/U
7 M/S
14 KTS



10°
N
Huidig weer

Mostly Cloudy with Light Showers Grotendeels bewolkt , Enkele buitjes
Luchtdruk 1027 (hPa) - 30.32 (inHg)
Zicht 6 (mijl) - 10 (km)
Vliegveld
Vliegveld code LPMA

Locatie : Madeira Airport
Afstand: 51 (mi)

Metar:
METAR LPMA 290700Z 01014KT 330V050 9999 -SHRA SCT015 BKN030 15/13 Q1027

Tijd: 29-02-2024 07:00 WET